Airfield :
LOGIN :

Register | Disclaimer

   EN    FR    IT 

 










Legend :    VFR   Marginal VFR   IFR   Intensive IFR   Very Intensive IFR
Visi :
Ceiling :
>= 8 km
>= 3000ft
5 to 8 km
1000 to 3000 ft
1500m to 5 km
500 to 1000 ft
800 to 1500m
200 to 500 ft
< 800m
< 200 ft
Symbols :   Thunderstorms  Fog  Heavy snow  Heavy precipitations  Wind > 20 kt
SIGMETs :     Misc.  Thunderstorms  Icing  Turbulence  Mountain Waves  Volcanic Ashes






- Airport Elevation : 39 ft
- IATA code : ANR


EBAW - Anvers / Antwerpen Deurne

CURRENT METAR :
  • 211250Z 05010KT 020V090 9999 SCT036 10/M00 Q1025 NOSIG

EXPIRED METARs :
  • 211220Z 01009KT 330V060 9999 SCT032 09/00 Q1025 NOSIG
  • 211150Z 03009KT 340V070 9999 SCT032 09/02 Q1025 NOSIG
  • 211120Z 03010KT 350V070 9999 SCT030 08/M00 Q1025 NOSIG
  • 211050Z 03010KT 350V060 9999 BKN026 08/01 Q1025 NOSIG
  • 211020Z 05012KT 010V070 9999 SCT025 08/02 Q1025 NOSIG
  • 210950Z 05011KT 010V080 9999 SCT022 07/02 Q1024 NOSIG
  • 210920Z 03012KT 360V070 9999 BKN021 06/02 Q1024 NOSIG
  • 210850Z 03010KT 360V060 9999 BKN021 06/01 Q1024 NOSIG

TAF TAF EBAW
Valid from the 21 at 12:00 until the 21 at 21:00 UTC


211118Z 2112/2121 03008KT 9999 FEW035



MET'MAP, your aeronautical weather chart ! - Copyright ORBIFLY December 2007 - Disclaimer

ORBIFLY MET'MAP TEAM :

Programming & Development : Alexandra Zaïnal
Original concept : Baudouin d'Aumeries
Technical & hardware support : Manuel Goepfert
Assistance : Marc-Olivier Méhu




SOURCES & CREDITS :

   NOAA